sensor_id;sensor_type;location;lat;lon;timestamp;pressure;altitude;pressure_sealevel;temperature;humidity
62592;BME280;48659;41.622;2.276;2024-02-21T00:01:17;100902.66;;;10.50;50.54
62592;BME280;48659;41.622;2.276;2024-02-21T00:03:49;100900.24;;;8.83;52.81
62592;BME280;48659;41.622;2.276;2024-02-21T00:06:16;100905.13;;;7.75;56.11
62592;BME280;48659;41.622;2.276;2024-02-21T00:08:48;100896.62;;;9.23;52.58
62592;BME280;48659;41.622;2.276;2024-02-21T00:11:15;100887.70;;;10.55;50.12
62592;BME280;48659;41.622;2.276;2024-02-21T00:13:47;100894.00;;;9.11;52.57
62592;BME280;48659;41.622;2.276;2024-02-21T00:16:15;100895.71;;;8.76;53.74
62592;BME280;48659;41.622;2.276;2024-02-21T00:18:49;100887.81;;;9.37;51.31
62592;BME280;48659;41.622;2.276;2024-02-21T00:21:16;100879.45;;;8.50;53.81
62592;BME280;48659;41.622;2.276;2024-02-21T00:23:48;100877.38;;;8.86;53.29
62592;BME280;48659;41.622;2.276;2024-02-21T00:26:16;100878.23;;;9.61;52.41
62592;BME280;48659;41.622;2.276;2024-02-21T00:28:44;100877.81;;;8.95;53.49
62592;BME280;48659;41.622;2.276;2024-02-21T00:31:11;100876.16;;;10.39;51.22
62592;BME280;48659;41.622;2.276;2024-02-21T00:33:39;100875.80;;;10.20;50.92
62592;BME280;48659;41.622;2.276;2024-02-21T00:36:06;100870.91;;;10.06;50.88
62592;BME280;48659;41.622;2.276;2024-02-21T00:38:33;100867.88;;;10.33;49.86
62592;BME280;48659;41.622;2.276;2024-02-21T00:41:00;100865.20;;;10.01;50.47
62592;BME280;48659;41.622;2.276;2024-02-21T00:43:27;100860.02;;;9.79;50.62
62592;BME280;48659;41.622;2.276;2024-02-21T00:45:55;100851.49;;;10.23;49.35
62592;BME280;48659;41.622;2.276;2024-02-21T00:48:22;100854.73;;;10.53;49.65
62592;BME280;48659;41.622;2.276;2024-02-21T00:50:50;100851.93;;;9.54;49.97
62592;BME280;48659;41.622;2.276;2024-02-21T00:53:18;100854.23;;;10.17;49.95
62592;BME280;48659;41.622;2.276;2024-02-21T00:55:49;100853.87;;;8.14;53.36
62592;BME280;48659;41.622;2.276;2024-02-21T00:58:16;100853.52;;;10.23;49.92
62592;BME280;48659;41.622;2.276;2024-02-21T01:00:43;100850.50;;;9.93;49.21
62592;BME280;48659;41.622;2.276;2024-02-21T01:03:11;100858.98;;;6.70;58.27
62592;BME280;48659;41.622;2.276;2024-02-21T01:05:39;100850.60;;;8.71;53.82
62592;BME280;48659;41.622;2.276;2024-02-21T01:08:06;100853.63;;;6.90;57.89
62592;BME280;48659;41.622;2.276;2024-02-21T01:10:34;100853.52;;;7.20;57.81
62592;BME280;48659;41.622;2.276;2024-02-21T01:13:01;100853.82;;;5.53;61.86
62592;BME280;48659;41.622;2.276;2024-02-21T01:15:29;100856.59;;;5.20;64.91
62592;BME280;48659;41.622;2.276;2024-02-21T01:17:56;100853.93;;;6.55;60.20
62592;BME280;48659;41.622;2.276;2024-02-21T01:20:23;100855.51;;;7.25;58.15
62592;BME280;48659;41.622;2.276;2024-02-21T01:22:52;100851.81;;;6.95;56.96
62592;BME280;48659;41.622;2.276;2024-02-21T01:25:20;100845.19;;;8.58;54.55
62592;BME280;48659;41.622;2.276;2024-02-21T01:27:49;100845.31;;;7.90;52.41
62592;BME280;48659;41.622;2.276;2024-02-21T01:30:17;100840.37;;;8.45;53.92
62592;BME280;48659;41.622;2.276;2024-02-21T01:32:44;100843.92;;;6.98;56.10
62592;BME280;48659;41.622;2.276;2024-02-21T01:35:12;100844.25;;;7.13;56.70
62592;BME280;48659;41.622;2.276;2024-02-21T01:37:52;100846.54;;;7.10;57.67
62592;BME280;48659;41.622;2.276;2024-02-21T01:40:20;100844.68;;;6.42;58.52
62592;BME280;48659;41.622;2.276;2024-02-21T01:42:47;100842.46;;;6.71;57.49
62592;BME280;48659;41.622;2.276;2024-02-21T01:45:15;100845.05;;;7.06;56.48
62592;BME280;48659;41.622;2.276;2024-02-21T01:47:48;100836.23;;;8.46;54.36
62592;BME280;48659;41.622;2.276;2024-02-21T01:50:17;100832.64;;;8.69;52.63
62592;BME280;48659;41.622;2.276;2024-02-21T01:52:46;100824.50;;;9.08;51.56
62592;BME280;48659;41.622;2.276;2024-02-21T01:55:14;100821.63;;;9.28;51.82
62592;BME280;48659;41.622;2.276;2024-02-21T01:57:49;100820.47;;;9.19;50.22
62592;BME280;48659;41.622;2.276;2024-02-21T02:00:26;100821.27;;;8.44;51.33
62592;BME280;48659;41.622;2.276;2024-02-21T02:02:54;100825.19;;;8.71;49.84
62592;BME280;48659;41.622;2.276;2024-02-21T02:05:22;100825.74;;;9.51;50.30
62592;BME280;48659;41.622;2.276;2024-02-21T02:07:49;100823.48;;;9.43;50.22
62592;BME280;48659;41.622;2.276;2024-02-21T02:10:17;100821.55;;;9.49;50.51
62592;BME280;48659;41.622;2.276;2024-02-21T02:12:44;100821.49;;;9.48;50.23
62592;BME280;48659;41.622;2.276;2024-02-21T02:15:12;100811.79;;;9.88;49.27
62592;BME280;48659;41.622;2.276;2024-02-21T02:17:52;100809.41;;;9.36;49.36
62592;BME280;48659;41.622;2.276;2024-02-21T02:20:19;100804.71;;;9.02;49.85
62592;BME280;48659;41.622;2.276;2024-02-21T02:22:47;100800.03;;;9.13;49.51
62592;BME280;48659;41.622;2.276;2024-02-21T02:25:16;100790.52;;;9.56;49.69
62592;BME280;48659;41.622;2.276;2024-02-21T02:27:44;100783.84;;;9.02;49.77
62592;BME280;48659;41.622;2.276;2024-02-21T02:30:12;100783.90;;;8.48;51.50
62592;BME280;48659;41.622;2.276;2024-02-21T02:32:43;100785.42;;;8.80;52.11
62592;BME280;48659;41.622;2.276;2024-02-21T02:35:11;100785.10;;;7.85;53.52
62592;BME280;48659;41.622;2.276;2024-02-21T02:37:38;100790.35;;;9.18;51.29
62592;BME280;48659;41.622;2.276;2024-02-21T02:40:06;100790.92;;;9.42;50.63
62592;BME280;48659;41.622;2.276;2024-02-21T02:42:34;100788.03;;;9.47;50.43
62592;BME280;48659;41.622;2.276;2024-02-21T02:45:02;100788.65;;;9.48;50.41
62592;BME280;48659;41.622;2.276;2024-02-21T02:47:29;100787.83;;;9.39;50.02
62592;BME280;48659;41.622;2.276;2024-02-21T02:49:57;100777.51;;;9.68;49.27
62592;BME280;48659;41.622;2.276;2024-02-21T02:52:25;100776.11;;;9.96;49.06
62592;BME280;48659;41.622;2.276;2024-02-21T02:54:52;100777.12;;;9.19;49.92
62592;BME280;48659;41.622;2.276;2024-02-21T02:57:20;100776.39;;;9.18;50.15
62592;BME280;48659;41.622;2.276;2024-02-21T02:59:48;100772.51;;;8.55;50.96
62592;BME280;48659;41.622;2.276;2024-02-21T03:02:15;100763.60;;;9.08;50.66
62592;BME280;48659;41.622;2.276;2024-02-21T03:04:42;100763.36;;;8.35;52.50
62592;BME280;48659;41.622;2.276;2024-02-21T03:07:10;100761.85;;;8.72;51.49
62592;BME280;48659;41.622;2.276;2024-02-21T03:09:38;100759.45;;;8.78;51.03
62592;BME280;48659;41.622;2.276;2024-02-21T03:12:06;100759.04;;;8.85;50.80
62592;BME280;48659;41.622;2.276;2024-02-21T03:14:33;100752.44;;;9.39;50.07
62592;BME280;48659;41.622;2.276;2024-02-21T03:17:00;100745.72;;;8.94;50.97
62592;BME280;48659;41.622;2.276;2024-02-21T03:19:28;100748.28;;;9.27;50.31
62592;BME280;48659;41.622;2.276;2024-02-21T03:21:55;100746.28;;;8.83;50.65
62592;BME280;48659;41.622;2.276;2024-02-21T03:28:56;100730.71;;;8.20;49.75
62592;BME280;48659;41.622;2.276;2024-02-21T03:31:23;100730.68;;;9.35;49.22
62592;BME280;48659;41.622;2.276;2024-02-21T03:33:54;100733.90;;;7.26;50.83
62592;BME280;48659;41.622;2.276;2024-02-21T03:36:22;100738.02;;;8.78;50.16
62592;BME280;48659;41.622;2.276;2024-02-21T03:38:49;100726.21;;;8.82;49.48
62592;BME280;48659;41.622;2.276;2024-02-21T03:41:16;100718.49;;;9.71;49.05
62592;BME280;48659;41.622;2.276;2024-02-21T03:43:55;100710.01;;;9.01;49.34
62592;BME280;48659;41.622;2.276;2024-02-21T03:46:23;100716.30;;;8.86;49.48
62592;BME280;48659;41.622;2.276;2024-02-21T03:48:54;100717.98;;;8.05;50.28
62592;BME280;48659;41.622;2.276;2024-02-21T03:51:22;100721.18;;;8.51;50.40
62592;BME280;48659;41.622;2.276;2024-02-21T03:53:53;100725.28;;;8.85;48.84
62592;BME280;48659;41.622;2.276;2024-02-21T03:56:20;100729.09;;;9.97;47.33
62592;BME280;48659;41.622;2.276;2024-02-21T03:58:54;100728.60;;;9.16;47.73
62592;BME280;48659;41.622;2.276;2024-02-21T04:01:22;100731.64;;;9.65;48.01
62592;BME280;48659;41.622;2.276;2024-02-21T04:03:53;100736.12;;;8.95;48.57
62592;BME280;48659;41.622;2.276;2024-02-21T04:06:21;100732.47;;;9.26;48.74
62592;BME280;48659;41.622;2.276;2024-02-21T04:08:48;100731.82;;;9.45;48.31
62592;BME280;48659;41.622;2.276;2024-02-21T04:11:15;100733.73;;;8.58;50.66
62592;BME280;48659;41.622;2.276;2024-02-21T04:13:42;100735.53;;;7.92;52.28
62592;BME280;48659;41.622;2.276;2024-02-21T04:16:09;100738.36;;;7.39;52.82
62592;BME280;48659;41.622;2.276;2024-02-21T04:18:37;100737.48;;;8.48;52.09
62592;BME280;48659;41.622;2.276;2024-02-21T04:21:04;100735.57;;;8.19;52.31
62592;BME280;48659;41.622;2.276;2024-02-21T04:23:32;100732.44;;;7.71;53.40
62592;BME280;48659;41.622;2.276;2024-02-21T04:25:59;100735.16;;;8.14;51.15
62592;BME280;48659;41.622;2.276;2024-02-21T04:28:27;100735.87;;;8.96;50.39
62592;BME280;48659;41.622;2.276;2024-02-21T04:30:55;100736.58;;;8.33;50.87
62592;BME280;48659;41.622;2.276;2024-02-21T04:33:22;100734.89;;;9.12;50.18
62592;BME280;48659;41.622;2.276;2024-02-21T04:35:53;100731.90;;;8.34;49.69
62592;BME280;48659;41.622;2.276;2024-02-21T04:38:20;100732.59;;;9.07;49.49
62592;BME280;48659;41.622;2.276;2024-02-21T04:40:48;100732.58;;;9.13;49.18
62592;BME280;48659;41.622;2.276;2024-02-21T04:43:15;100735.75;;;9.15;49.56
62592;BME280;48659;41.622;2.276;2024-02-21T04:45:43;100743.16;;;9.47;49.01
62592;BME280;48659;41.622;2.276;2024-02-21T04:48:10;100748.76;;;8.30;50.49
62592;BME280;48659;41.622;2.276;2024-02-21T04:50:37;100744.47;;;9.45;48.50
62592;BME280;48659;41.622;2.276;2024-02-21T04:53:04;100747.29;;;8.59;49.02
62592;BME280;48659;41.622;2.276;2024-02-21T04:55:32;100748.19;;;8.83;48.99
62592;BME280;48659;41.622;2.276;2024-02-21T04:57:59;100751.02;;;8.77;48.25
62592;BME280;48659;41.622;2.276;2024-02-21T05:00:37;100753.00;;;9.61;47.50
62592;BME280;48659;41.622;2.276;2024-02-21T05:03:05;100752.61;;;9.84;47.30
62592;BME280;48659;41.622;2.276;2024-02-21T05:05:32;100752.43;;;9.97;47.36
62592;BME280;48659;41.622;2.276;2024-02-21T05:07:59;100761.06;;;9.09;47.30
62592;BME280;48659;41.622;2.276;2024-02-21T05:10:27;100763.98;;;9.48;47.52
62592;BME280;48659;41.622;2.276;2024-02-21T05:12:54;100768.10;;;7.28;49.56
62592;BME280;48659;41.622;2.276;2024-02-21T05:15:22;100772.36;;;7.99;51.54
62592;BME280;48659;41.622;2.276;2024-02-21T05:17:53;100770.29;;;8.02;49.82
62592;BME280;48659;41.622;2.276;2024-02-21T05:20:21;100771.21;;;8.67;49.66
62592;BME280;48659;41.622;2.276;2024-02-21T05:22:48;100771.29;;;8.54;49.86
62592;BME280;48659;41.622;2.276;2024-02-21T05:25:15;100768.96;;;9.03;49.58
62592;BME280;48659;41.622;2.276;2024-02-21T05:27:57;100770.48;;;8.92;49.45
62592;BME280;48659;41.622;2.276;2024-02-21T05:30:25;100765.86;;;8.72;50.32
62592;BME280;48659;41.622;2.276;2024-02-21T05:32:52;100757.36;;;8.83;48.95
62592;BME280;48659;41.622;2.276;2024-02-21T05:35:19;100756.51;;;8.99;48.93
62592;BME280;48659;41.622;2.276;2024-02-21T05:37:53;100754.86;;;8.40;48.95
62592;BME280;48659;41.622;2.276;2024-02-21T05:40:23;100741.35;;;8.70;49.33
62592;BME280;48659;41.622;2.276;2024-02-21T05:42:53;100734.04;;;8.29;49.55
62592;BME280;48659;41.622;2.276;2024-02-21T05:45:20;100730.88;;;7.48;51.82
62592;BME280;48659;41.622;2.276;2024-02-21T05:47:47;100726.81;;;8.38;49.89
62592;BME280;48659;41.622;2.276;2024-02-21T05:50:15;100722.63;;;8.64;49.85
62592;BME280;48659;41.622;2.276;2024-02-21T05:52:43;100719.63;;;7.92;50.80
62592;BME280;48659;41.622;2.276;2024-02-21T05:55:10;100721.63;;;8.72;50.22
62592;BME280;48659;41.622;2.276;2024-02-21T05:57:37;100714.71;;;8.65;50.23
62592;BME280;48659;41.622;2.276;2024-02-21T06:00:06;100711.02;;;7.01;52.94
62592;BME280;48659;41.622;2.276;2024-02-21T06:02:33;100705.24;;;7.05;52.96
62592;BME280;48659;41.622;2.276;2024-02-21T06:05:01;100705.83;;;6.68;53.18
62592;BME280;48659;41.622;2.276;2024-02-21T06:07:28;100707.85;;;7.53;52.02
62592;BME280;48659;41.622;2.276;2024-02-21T06:09:56;100711.48;;;4.91;58.98
62592;BME280;48659;41.622;2.276;2024-02-21T06:12:23;100717.74;;;5.36;58.97
62592;BME280;48659;41.622;2.276;2024-02-21T06:14:53;100720.57;;;6.65;54.36
62592;BME280;48659;41.622;2.276;2024-02-21T06:17:21;100718.15;;;7.94;52.25
62592;BME280;48659;41.622;2.276;2024-02-21T06:19:54;100725.29;;;4.93;57.87
62592;BME280;48659;41.622;2.276;2024-02-21T06:22:21;100728.61;;;5.27;57.89
62592;BME280;48659;41.622;2.276;2024-02-21T06:24:49;100728.01;;;5.76;57.58
62592;BME280;48659;41.622;2.276;2024-02-21T06:27:16;100731.12;;;7.44;54.10
62592;BME280;48659;41.622;2.276;2024-02-21T06:29:56;100735.23;;;7.84;52.94
62592;BME280;48659;41.622;2.276;2024-02-21T06:32:24;100750.63;;;6.75;54.32
62592;BME280;48659;41.622;2.276;2024-02-21T06:34:53;100753.45;;;4.99;57.61
62592;BME280;48659;41.622;2.276;2024-02-21T06:37:21;100757.11;;;5.58;57.34
62592;BME280;48659;41.622;2.276;2024-02-21T06:39:53;100752.93;;;7.19;52.97
62592;BME280;48659;41.622;2.276;2024-02-21T06:42:21;100748.81;;;8.24;52.18
62592;BME280;48659;41.622;2.276;2024-02-21T06:44:48;100753.21;;;7.70;51.39
62592;BME280;48659;41.622;2.276;2024-02-21T06:47:15;100762.82;;;7.40;52.25
62592;BME280;48659;41.622;2.276;2024-02-21T06:49:43;100761.83;;;7.80;51.14
62592;BME280;48659;41.622;2.276;2024-02-21T06:52:16;100765.03;;;7.92;51.05
62592;BME280;48659;41.622;2.276;2024-02-21T06:54:53;100772.72;;;8.76;49.62
62592;BME280;48659;41.622;2.276;2024-02-21T06:57:21;100776.63;;;8.70;48.92
62592;BME280;48659;41.622;2.276;2024-02-21T06:59:48;100774.88;;;8.40;49.11
62592;BME280;48659;41.622;2.276;2024-02-21T07:02:15;100769.80;;;8.54;49.57
62592;BME280;48659;41.622;2.276;2024-02-21T07:04:44;100764.96;;;8.94;48.78
62592;BME280;48659;41.622;2.276;2024-02-21T07:07:12;100771.80;;;8.95;48.82
62592;BME280;48659;41.622;2.276;2024-02-21T07:09:40;100778.35;;;8.31;49.25
62592;BME280;48659;41.622;2.276;2024-02-21T07:12:07;100779.14;;;8.37;49.49
62592;BME280;48659;41.622;2.276;2024-02-21T07:14:36;100774.66;;;8.59;49.46
62592;BME280;48659;41.622;2.276;2024-02-21T07:17:03;100773.25;;;8.72;49.03
62592;BME280;48659;41.622;2.276;2024-02-21T07:19:31;100771.00;;;8.39;49.90
62592;BME280;48659;41.622;2.276;2024-02-21T07:21:59;100773.23;;;7.87;49.83
62592;BME280;48659;41.622;2.276;2024-02-21T07:24:26;100773.11;;;9.17;48.68
62592;BME280;48659;41.622;2.276;2024-02-21T07:26:55;100774.47;;;9.03;48.26
62592;BME280;48659;41.622;2.276;2024-02-21T07:29:23;100775.48;;;9.15;47.89
62592;BME280;48659;41.622;2.276;2024-02-21T07:31:51;100775.55;;;9.07;48.00
62592;BME280;48659;41.622;2.276;2024-02-21T07:34:18;100774.52;;;9.97;46.65
62592;BME280;48659;41.622;2.276;2024-02-21T07:36:46;100778.94;;;9.53;46.96
62592;BME280;48659;41.622;2.276;2024-02-21T07:39:13;100781.95;;;9.55;47.49
62592;BME280;48659;41.622;2.276;2024-02-21T07:41:41;100779.17;;;9.81;46.82
62592;BME280;48659;41.622;2.276;2024-02-21T07:44:08;100769.36;;;9.90;45.88
62592;BME280;48659;41.622;2.276;2024-02-21T07:46:35;100766.67;;;10.11;45.56
62592;BME280;48659;41.622;2.276;2024-02-21T07:49:03;100765.13;;;10.20;45.00
62592;BME280;48659;41.622;2.276;2024-02-21T07:51:30;100769.44;;;10.61;45.18
62592;BME280;48659;41.622;2.276;2024-02-21T07:53:57;100768.69;;;9.92;45.37
62592;BME280;48659;41.622;2.276;2024-02-21T07:56:27;100771.47;;;10.31;44.50
62592;BME280;48659;41.622;2.276;2024-02-21T07:58:55;100774.04;;;10.78;43.92
62592;BME280;48659;41.622;2.276;2024-02-21T08:01:22;100780.18;;;10.63;43.84
62592;BME280;48659;41.622;2.276;2024-02-21T08:03:50;100787.42;;;10.55;43.43
62592;BME280;48659;41.622;2.276;2024-02-21T08:06:17;100796.82;;;10.66;44.13
62592;BME280;48659;41.622;2.276;2024-02-21T08:08:45;100806.94;;;11.60;43.46
62592;BME280;48659;41.622;2.276;2024-02-21T08:11:12;100807.10;;;11.48;42.39
62592;BME280;48659;41.622;2.276;2024-02-21T08:13:39;100805.32;;;11.88;41.83
62592;BME280;48659;41.622;2.276;2024-02-21T08:16:07;100802.73;;;12.14;41.61
62592;BME280;48659;41.622;2.276;2024-02-21T08:18:34;100805.86;;;11.80;42.38
62592;BME280;48659;41.622;2.276;2024-02-21T08:21:03;100809.28;;;11.55;42.63
62592;BME280;48659;41.622;2.276;2024-02-21T08:23:31;100808.75;;;11.92;42.32
62592;BME280;48659;41.622;2.276;2024-02-21T08:25:59;100803.24;;;12.45;41.90
62592;BME280;48659;41.622;2.276;2024-02-21T08:28:26;100808.27;;;12.14;42.21
62592;BME280;48659;41.622;2.276;2024-02-21T08:30:54;100809.61;;;12.54;42.10
62592;BME280;48659;41.622;2.276;2024-02-21T08:33:21;100813.42;;;13.33;42.10
62592;BME280;48659;41.622;2.276;2024-02-21T08:35:49;100821.64;;;11.45;46.66
62592;BME280;48659;41.622;2.276;2024-02-21T08:38:16;100816.22;;;10.33;54.36
62592;BME280;48659;41.622;2.276;2024-02-21T08:40:52;100818.40;;;9.43;57.57
62592;BME280;48659;41.622;2.276;2024-02-21T08:43:20;100812.57;;;10.04;58.53
62592;BME280;48659;41.622;2.276;2024-02-21T08:45:47;100807.51;;;10.46;55.27
62592;BME280;48659;41.622;2.276;2024-02-21T08:48:15;100808.06;;;10.43;55.23
62592;BME280;48659;41.622;2.276;2024-02-21T08:50:43;100801.36;;;10.57;54.37
62592;BME280;48659;41.622;2.276;2024-02-21T08:53:10;100799.31;;;11.17;54.34
62592;BME280;48659;41.622;2.276;2024-02-21T08:55:37;100787.71;;;12.36;52.12
62592;BME280;48659;41.622;2.276;2024-02-21T08:58:04;100790.09;;;12.10;51.04
62592;BME280;48659;41.622;2.276;2024-02-21T09:00:32;100787.82;;;13.27;48.89
62592;BME280;48659;41.622;2.276;2024-02-21T09:03:00;100782.24;;;11.94;49.91
62592;BME280;48659;41.622;2.276;2024-02-21T09:05:28;100774.44;;;12.77;49.80
62592;BME280;48659;41.622;2.276;2024-02-21T09:07:55;100772.07;;;12.57;48.84
62592;BME280;48659;41.622;2.276;2024-02-21T09:10:22;100769.57;;;13.07;48.73
62592;BME280;48659;41.622;2.276;2024-02-21T09:12:49;100767.78;;;12.34;48.84
62592;BME280;48659;41.622;2.276;2024-02-21T09:15:17;100760.99;;;13.70;47.69
62592;BME280;48659;41.622;2.276;2024-02-21T09:17:45;100757.15;;;14.10;47.55
62592;BME280;48659;41.622;2.276;2024-02-21T09:20:13;100750.36;;;14.26;46.86
62592;BME280;48659;41.622;2.276;2024-02-21T09:22:40;100749.12;;;13.66;46.74
62592;BME280;48659;41.622;2.276;2024-02-21T09:25:08;100747.90;;;13.18;47.75
62592;BME280;48659;41.622;2.276;2024-02-21T09:27:36;100745.81;;;13.83;47.99
62592;BME280;48659;41.622;2.276;2024-02-21T09:30:04;100740.60;;;13.77;47.05
62592;BME280;48659;41.622;2.276;2024-02-21T09:32:32;100740.08;;;14.23;46.56
62592;BME280;48659;41.622;2.276;2024-02-21T09:34:59;100741.44;;;12.28;48.41
62592;BME280;48659;41.622;2.276;2024-02-21T09:37:26;100735.58;;;13.49;47.62
62592;BME280;48659;41.622;2.276;2024-02-21T09:39:54;100734.62;;;14.44;45.78
62592;BME280;48659;41.622;2.276;2024-02-21T09:42:21;100728.00;;;14.70;46.68
62592;BME280;48659;41.622;2.276;2024-02-21T09:44:54;100729.13;;;14.04;46.19
62592;BME280;48659;41.622;2.276;2024-02-21T09:47:27;100728.09;;;14.09;46.85
62592;BME280;48659;41.622;2.276;2024-02-21T09:49:58;100723.04;;;13.79;46.80
62592;BME280;48659;41.622;2.276;2024-02-21T09:52:26;100725.76;;;13.65;48.45
62592;BME280;48659;41.622;2.276;2024-02-21T09:54:55;100722.31;;;12.33;48.89
62592;BME280;48659;41.622;2.276;2024-02-21T09:57:22;100719.30;;;14.41;46.12
62592;BME280;48659;41.622;2.276;2024-02-21T09:59:54;100717.93;;;13.89;45.41
62592;BME280;48659;41.622;2.276;2024-02-21T10:02:22;100719.21;;;14.70;44.64
62592;BME280;48659;41.622;2.276;2024-02-21T10:04:50;100711.96;;;14.01;45.87
62592;BME280;48659;41.622;2.276;2024-02-21T10:07:17;100713.84;;;14.13;45.39
62592;BME280;48659;41.622;2.276;2024-02-21T10:09:46;100715.42;;;14.75;45.94
62592;BME280;48659;41.622;2.276;2024-02-21T10:12:13;100713.95;;;14.18;45.79
62592;BME280;48659;41.622;2.276;2024-02-21T10:14:40;100707.50;;;15.79;45.15
62592;BME280;48659;41.622;2.276;2024-02-21T10:17:16;100706.41;;;15.23;46.17
62592;BME280;48659;41.622;2.276;2024-02-21T10:19:44;100700.35;;;16.07;42.76
62592;BME280;48659;41.622;2.276;2024-02-21T10:22:12;100702.41;;;15.41;43.84
62592;BME280;48659;41.622;2.276;2024-02-21T10:24:39;100702.88;;;15.00;44.72
62592;BME280;48659;41.622;2.276;2024-02-21T10:27:07;100704.17;;;15.02;44.94
62592;BME280;48659;41.622;2.276;2024-02-21T10:29:35;100703.88;;;15.97;44.08
62592;BME280;48659;41.622;2.276;2024-02-21T10:32:05;100703.28;;;15.71;44.10
62592;BME280;48659;41.622;2.276;2024-02-21T10:34:33;100710.44;;;14.65;45.11
62592;BME280;48659;41.622;2.276;2024-02-21T10:37:02;100705.77;;;14.23;45.81
62592;BME280;48659;41.622;2.276;2024-02-21T10:39:29;100707.42;;;15.11;44.50
62592;BME280;48659;41.622;2.276;2024-02-21T10:42:00;100695.82;;;15.25;43.21
62592;BME280;48659;41.622;2.276;2024-02-21T10:44:28;100693.62;;;14.21;46.11
62592;BME280;48659;41.622;2.276;2024-02-21T10:46:56;100691.72;;;14.50;42.89
62592;BME280;48659;41.622;2.276;2024-02-21T10:49:25;100689.60;;;15.68;40.20
62592;BME280;48659;41.622;2.276;2024-02-21T10:51:58;100695.97;;;14.86;40.88
62592;BME280;48659;41.622;2.276;2024-02-21T10:54:44;100684.17;;;15.73;39.28
62592;BME280;48659;41.622;2.276;2024-02-21T10:57:13;100684.66;;;15.28;38.17
62592;BME280;48659;41.622;2.276;2024-02-21T10:59:40;100680.69;;;15.38;38.32
62592;BME280;48659;41.622;2.276;2024-02-21T11:02:08;100674.37;;;15.54;38.12
62592;BME280;48659;41.622;2.276;2024-02-21T11:04:36;100663.79;;;15.92;37.22
62592;BME280;48659;41.622;2.276;2024-02-21T11:07:05;100664.35;;;15.13;37.56
62592;BME280;48659;41.622;2.276;2024-02-21T11:09:33;100662.46;;;15.43;36.68
62592;BME280;48659;41.622;2.276;2024-02-21T11:12:04;100657.42;;;15.57;35.85
62592;BME280;48659;41.622;2.276;2024-02-21T11:14:31;100651.11;;;15.55;36.08
62592;BME280;48659;41.622;2.276;2024-02-21T11:16:59;100648.68;;;15.39;35.96
62592;BME280;48659;41.622;2.276;2024-02-21T11:19:28;100643.93;;;16.29;35.33
62592;BME280;48659;41.622;2.276;2024-02-21T11:21:57;100633.58;;;15.98;35.48
62592;BME280;48659;41.622;2.276;2024-02-21T11:24:28;100629.94;;;16.81;34.58
62592;BME280;48659;41.622;2.276;2024-02-21T11:26:56;100625.19;;;16.07;34.18
62592;BME280;48659;41.622;2.276;2024-02-21T11:29:25;100622.15;;;16.24;33.46
62592;BME280;48659;41.622;2.276;2024-02-21T11:31:53;100614.38;;;15.40;33.78
62592;BME280;48659;41.622;2.276;2024-02-21T11:34:21;100610.01;;;17.16;31.39
62592;BME280;48659;41.622;2.276;2024-02-21T11:36:49;100605.20;;;16.03;32.23
62592;BME280;48659;41.622;2.276;2024-02-21T11:39:19;100598.56;;;15.57;33.30
62592;BME280;48659;41.622;2.276;2024-02-21T11:42:09;100591.39;;;16.19;31.78
62592;BME280;48659;41.622;2.276;2024-02-21T11:44:37;100580.02;;;16.63;31.39
62592;BME280;48659;41.622;2.276;2024-02-21T11:47:05;100573.18;;;16.88;31.45
62592;BME280;48659;41.622;2.276;2024-02-21T11:49:38;100571.90;;;17.56;30.83
62592;BME280;48659;41.622;2.276;2024-02-21T11:52:06;100565.58;;;16.76;30.69
62592;BME280;48659;41.622;2.276;2024-02-21T11:54:34;100560.34;;;16.91;32.32
62592;BME280;48659;41.622;2.276;2024-02-21T11:57:02;100556.67;;;17.31;31.51
62592;BME280;48659;41.622;2.276;2024-02-21T11:59:30;100548.54;;;17.25;32.09
62592;BME280;48659;41.622;2.276;2024-02-21T12:01:58;100546.82;;;17.06;31.49
62592;BME280;48659;41.622;2.276;2024-02-21T12:04:27;100541.65;;;17.60;31.76
62592;BME280;48659;41.622;2.276;2024-02-21T12:06:54;100544.24;;;16.90;32.96
62592;BME280;48659;41.622;2.276;2024-02-21T12:09:23;100540.06;;;16.48;33.66
62592;BME280;48659;41.622;2.276;2024-02-21T12:11:57;100541.07;;;16.71;32.50
62592;BME280;48659;41.622;2.276;2024-02-21T12:14:27;100534.82;;;16.93;32.61
62592;BME280;48659;41.622;2.276;2024-02-21T12:16:55;100533.39;;;16.27;33.02
62592;BME280;48659;41.622;2.276;2024-02-21T12:19:23;100526.80;;;17.19;32.51
62592;BME280;48659;41.622;2.276;2024-02-21T12:21:51;100523.01;;;16.79;32.32
62592;BME280;48659;41.622;2.276;2024-02-21T12:24:22;100526.69;;;16.53;33.66
62592;BME280;48659;41.622;2.276;2024-02-21T12:26:54;100529.39;;;16.29;33.31
62592;BME280;48659;41.622;2.276;2024-02-21T12:29:22;100522.92;;;15.42;34.17
62592;BME280;48659;41.622;2.276;2024-02-21T12:31:50;100511.49;;;16.79;32.93
62592;BME280;48659;41.622;2.276;2024-02-21T12:34:18;100506.68;;;17.11;32.65
62592;BME280;48659;41.622;2.276;2024-02-21T12:36:53;100509.82;;;16.23;33.59
62592;BME280;48659;41.622;2.276;2024-02-21T12:39:21;100497.50;;;17.60;32.11
62592;BME280;48659;41.622;2.276;2024-02-21T12:41:49;100492.59;;;17.42;31.87
62592;BME280;48659;41.622;2.276;2024-02-21T12:44:17;100487.83;;;16.96;32.67
62592;BME280;48659;41.622;2.276;2024-02-21T12:46:45;100472.68;;;16.89;32.67
62592;BME280;48659;41.622;2.276;2024-02-21T12:49:12;100477.46;;;16.47;33.22
62592;BME280;48659;41.622;2.276;2024-02-21T12:51:39;100465.97;;;17.52;32.52
62592;BME280;48659;41.622;2.276;2024-02-21T12:54:07;100464.87;;;17.83;31.72
62592;BME280;48659;41.622;2.276;2024-02-21T12:56:34;100457.84;;;18.35;31.54
62592;BME280;48659;41.622;2.276;2024-02-21T12:59:01;100454.10;;;17.83;32.28
62592;BME280;48659;41.622;2.276;2024-02-21T13:01:28;100447.03;;;18.54;32.59
62592;BME280;48659;41.622;2.276;2024-02-21T13:03:56;100435.09;;;18.39;32.30
62592;BME280;48659;41.622;2.276;2024-02-21T13:06:23;100438.36;;;18.01;33.25